Florence, OR

3:49 AM PDT on September 23, 2014 (GMT -0700)
Mahlon Sweet | Change Station
CLOSE
Current Station
Airport
Location: Eugene,
Elevation: 374 ft
Nearby Weather Stations
Active Advisory: Special Statement

Elev 374 ft 44.12 °N, 123.21 °W | Updated 11 minutes ago

Overcast
Overcast
55 °F
Feels Like 55 °F
N
0
Wind Variable Wind from North

Today
High -- | Low -- °F
--% Chance of Precip.
Yesterday
High -- | Low -- °F
Precip. -- in
7:04 AM 7:11 PM
Waning Crescent, 1% visible
Pressure 29.87 in
Visibility 0.8 miles
Clouds
Dew Point 54 °F
Humidity 94%
Rainfall 0.00 in
Snow Depth 0 in , 0 in , 0 in
UV Not available.
Pollen 1.60 out of 12
Air Quality Not available.
Flu Activity Not available.
SPECI KEUG 231038Z AUTO 00000KT 3/4SM BR VV001 13/12 A2987

More Conditions Fewer Conditions

Pressure 29.87 in
Visibility 0.8 miles
Clouds
Dew Point 54 °F
Humidity 94%
Rainfall 0.00 in
Snow Depth 0 in , 0 in , 0 in
UV Not available.
Pollen 1.60 out of 12
Air Quality Not available.
Flu Activity Not available.
SPECI KEUG 231038Z AUTO 00000KT 3/4SM BR VV001 13/12 A2987

More Conditions Fewer Conditions

10-Day Weather Forecast

Almanac

Astronomy

Sep. 23, 2014 Rise Set
Actual Time 7:04 AM PDT 7:11 PM PDT
Civil Twilight 6:35 AM PDT 7:40 PM PDT
Nautical Twilight 6:02 AM PDT 8:13 PM PDT
Astronomical Twilight 5:27 AM PDT 8:48 PM PDT
Moon 6:34 AM PDT 6:52 PM PDT
Length of Visible Light 13h 04m
Length of Day
12h 06m
Tomorrow will be 3m 0s shorter.
Waning Crescent, 1% of the Moon is Illuminated
Today
Waning Crescent
Sep 24
New
Oct 1
First Quarter
Oct 8
Full
Oct 15
Last Quarter

Today's Extremes

State Highs State Lows

Community

WunderPhotos

Upload Photos

1,755,645 photos uploaded!

Nearby

Snow Depth

Station Depth Elevation
Mckenzie 0 in 4800 ft
Bowman Springs 0 in 4580 ft
Derr 0 in 5670 ft
Seine Creek 0 in 2000 ft
Diamond Lake 0 in 5315 ft

Earthquake Activity

City Distance Mag. Time & Date
No recent earthquake activity has been reported nearby.
Minimum magnitude displayed is 2.5.

Coastal Water Temperatures

Place Temperature
Port Orford, OR 57.9 °F
Charleston, OR 59.0 °F
South Beach, OR 55.9 °F

Nearby Weather Stations